sensor_id;sensor_type;location;lat;lon;timestamp;P1;durP1;ratioP1;P2;durP2;ratioP2
35276;SDS011;21401;50.878;8.050;2022-12-10T00:00:33;36.42;;;19.67;;
35276;SDS011;21401;50.878;8.050;2022-12-10T00:03:01;34.78;;;18.23;;
35276;SDS011;21401;50.878;8.050;2022-12-10T00:05:27;34.15;;;18.38;;
35276;SDS011;21401;50.878;8.050;2022-12-10T00:07:55;30.45;;;17.48;;
35276;SDS011;21401;50.878;8.050;2022-12-10T00:10:20;34.28;;;18.33;;
35276;SDS011;21401;50.878;8.050;2022-12-10T00:12:49;30.58;;;17.25;;
35276;SDS011;21401;50.878;8.050;2022-12-10T00:15:14;37.50;;;19.42;;
35276;SDS011;21401;50.878;8.050;2022-12-10T00:17:40;30.35;;;16.98;;
35276;SDS011;21401;50.878;8.050;2022-12-10T00:20:05;28.67;;;16.75;;
35276;SDS011;21401;50.878;8.050;2022-12-10T00:22:31;30.85;;;16.33;;
35276;SDS011;21401;50.878;8.050;2022-12-10T00:24:59;31.75;;;17.05;;
35276;SDS011;21401;50.878;8.050;2022-12-10T00:27:25;30.65;;;15.43;;
35276;SDS011;21401;50.878;8.050;2022-12-10T00:29:50;33.83;;;17.63;;
35276;SDS011;21401;50.878;8.050;2022-12-10T00:32:16;29.02;;;16.92;;
35276;SDS011;21401;50.878;8.050;2022-12-10T00:34:42;29.83;;;17.95;;
35276;SDS011;21401;50.878;8.050;2022-12-10T00:37:07;35.70;;;17.88;;
35276;SDS011;21401;50.878;8.050;2022-12-10T00:39:33;31.23;;;17.23;;
35276;SDS011;21401;50.878;8.050;2022-12-10T00:42:01;35.60;;;18.23;;
35276;SDS011;21401;50.878;8.050;2022-12-10T00:44:26;36.38;;;18.52;;
35276;SDS011;21401;50.878;8.050;2022-12-10T00:46:54;31.33;;;16.52;;
35276;SDS011;21401;50.878;8.050;2022-12-10T00:49:20;35.50;;;17.17;;
35276;SDS011;21401;50.878;8.050;2022-12-10T00:51:48;25.63;;;15.43;;
35276;SDS011;21401;50.878;8.050;2022-12-10T00:54:13;33.78;;;18.98;;
35276;SDS011;21401;50.878;8.050;2022-12-10T00:56:39;34.55;;;16.95;;
35276;SDS011;21401;50.878;8.050;2022-12-10T00:59:04;28.92;;;17.52;;
35276;SDS011;21401;50.878;8.050;2022-12-10T01:01:31;30.20;;;16.42;;
35276;SDS011;21401;50.878;8.050;2022-12-10T01:04:05;30.50;;;16.50;;
35276;SDS011;21401;50.878;8.050;2022-12-10T01:06:39;32.72;;;16.92;;
35276;SDS011;21401;50.878;8.050;2022-12-10T01:09:14;33.55;;;17.63;;
35276;SDS011;21401;50.878;8.050;2022-12-10T01:11:42;30.42;;;16.45;;
35276;SDS011;21401;50.878;8.050;2022-12-10T01:14:11;32.35;;;16.65;;
35276;SDS011;21401;50.878;8.050;2022-12-10T01:16:43;31.52;;;16.13;;
35276;SDS011;21401;50.878;8.050;2022-12-10T01:19:10;29.40;;;16.23;;
35276;SDS011;21401;50.878;8.050;2022-12-10T01:21:36;27.95;;;16.15;;
35276;SDS011;21401;50.878;8.050;2022-12-10T01:24:02;30.17;;;16.50;;
35276;SDS011;21401;50.878;8.050;2022-12-10T01:26:30;30.52;;;16.25;;
35276;SDS011;21401;50.878;8.050;2022-12-10T01:28:57;29.38;;;15.93;;
35276;SDS011;21401;50.878;8.050;2022-12-10T01:31:26;27.27;;;15.00;;
35276;SDS011;21401;50.878;8.050;2022-12-10T01:33:53;29.75;;;16.08;;
35276;SDS011;21401;50.878;8.050;2022-12-10T01:36:24;27.77;;;15.90;;
35276;SDS011;21401;50.878;8.050;2022-12-10T01:38:55;29.20;;;16.63;;
35276;SDS011;21401;50.878;8.050;2022-12-10T01:41:31;34.60;;;15.70;;
35276;SDS011;21401;50.878;8.050;2022-12-10T01:46:35;29.75;;;15.65;;
35276;SDS011;21401;50.878;8.050;2022-12-10T01:49:06;31.25;;;16.23;;
35276;SDS011;21401;50.878;8.050;2022-12-10T01:51:37;32.30;;;17.88;;
35276;SDS011;21401;50.878;8.050;2022-12-10T01:54:08;32.08;;;16.58;;
35276;SDS011;21401;50.878;8.050;2022-12-10T01:56:38;28.25;;;15.63;;
35276;SDS011;21401;50.878;8.050;2022-12-10T01:59:08;34.22;;;17.13;;
35276;SDS011;21401;50.878;8.050;2022-12-10T02:02:38;34.50;;;19.27;;
35276;SDS011;21401;50.878;8.050;2022-12-10T02:05:01;35.25;;;18.73;;
35276;SDS011;21401;50.878;8.050;2022-12-10T02:13:31;29.95;;;17.42;;
35276;SDS011;21401;50.878;8.050;2022-12-10T02:18:37;33.72;;;17.33;;
35276;SDS011;21401;50.878;8.050;2022-12-10T02:21:34;33.78;;;16.55;;
35276;SDS011;21401;50.878;8.050;2022-12-10T02:24:07;36.00;;;17.52;;
35276;SDS011;21401;50.878;8.050;2022-12-10T02:29:28;33.95;;;16.50;;
35276;SDS011;21401;50.878;8.050;2022-12-10T02:31:56;30.10;;;17.33;;
35276;SDS011;21401;50.878;8.050;2022-12-10T02:34:28;30.58;;;16.02;;
35276;SDS011;21401;50.878;8.050;2022-12-10T02:36:57;30.30;;;15.68;;
35276;SDS011;21401;50.878;8.050;2022-12-10T02:39:32;33.20;;;18.45;;
35276;SDS011;21401;50.878;8.050;2022-12-10T02:42:05;31.60;;;17.27;;
35276;SDS011;21401;50.878;8.050;2022-12-10T02:44:33;36.13;;;18.00;;
35276;SDS011;21401;50.878;8.050;2022-12-10T02:47:01;35.70;;;17.95;;
35276;SDS011;21401;50.878;8.050;2022-12-10T02:49:30;38.70;;;19.52;;
35276;SDS011;21401;50.878;8.050;2022-12-10T02:52:05;32.95;;;17.38;;
35276;SDS011;21401;50.878;8.050;2022-12-10T02:54:34;26.80;;;15.88;;
35276;SDS011;21401;50.878;8.050;2022-12-10T03:02:24;31.77;;;16.15;;
35276;SDS011;21401;50.878;8.050;2022-12-10T03:07:37;28.77;;;15.25;;
35276;SDS011;21401;50.878;8.050;2022-12-10T03:10:24;36.83;;;16.63;;
35276;SDS011;21401;50.878;8.050;2022-12-10T03:12:53;29.52;;;16.90;;
35276;SDS011;21401;50.878;8.050;2022-12-10T03:15:23;34.28;;;16.38;;
35276;SDS011;21401;50.878;8.050;2022-12-10T03:17:50;32.72;;;15.75;;
35276;SDS011;21401;50.878;8.050;2022-12-10T03:20:17;30.95;;;15.73;;
35276;SDS011;21401;50.878;8.050;2022-12-10T03:22:44;33.72;;;15.85;;
35276;SDS011;21401;50.878;8.050;2022-12-10T03:25:13;28.92;;;15.05;;
35276;SDS011;21401;50.878;8.050;2022-12-10T03:27:42;35.35;;;15.60;;
35276;SDS011;21401;50.878;8.050;2022-12-10T03:30:09;28.92;;;14.90;;
35276;SDS011;21401;50.878;8.050;2022-12-10T03:32:35;29.20;;;14.82;;
35276;SDS011;21401;50.878;8.050;2022-12-10T03:35:02;31.50;;;15.48;;
35276;SDS011;21401;50.878;8.050;2022-12-10T03:37:31;30.77;;;16.05;;
35276;SDS011;21401;50.878;8.050;2022-12-10T03:39:59;28.02;;;14.82;;
35276;SDS011;21401;50.878;8.050;2022-12-10T03:42:27;30.42;;;15.02;;
35276;SDS011;21401;50.878;8.050;2022-12-10T03:44:53;30.27;;;15.20;;
35276;SDS011;21401;50.878;8.050;2022-12-10T03:47:19;27.40;;;14.73;;
35276;SDS011;21401;50.878;8.050;2022-12-10T03:49:45;27.95;;;15.10;;
35276;SDS011;21401;50.878;8.050;2022-12-10T03:52:13;29.20;;;14.85;;
35276;SDS011;21401;50.878;8.050;2022-12-10T03:54:38;26.77;;;15.10;;
35276;SDS011;21401;50.878;8.050;2022-12-10T03:57:07;20.63;;;12.48;;
35276;SDS011;21401;50.878;8.050;2022-12-10T03:59:32;27.08;;;14.13;;
35276;SDS011;21401;50.878;8.050;2022-12-10T04:02:00;30.73;;;14.80;;
35276;SDS011;21401;50.878;8.050;2022-12-10T04:04:31;24.70;;;14.20;;
35276;SDS011;21401;50.878;8.050;2022-12-10T04:06:56;32.05;;;14.80;;
35276;SDS011;21401;50.878;8.050;2022-12-10T04:09:22;31.90;;;14.90;;
35276;SDS011;21401;50.878;8.050;2022-12-10T04:11:50;30.98;;;15.65;;
35276;SDS011;21401;50.878;8.050;2022-12-10T04:14:21;34.00;;;16.45;;
35276;SDS011;21401;50.878;8.050;2022-12-10T04:17:05;28.10;;;15.43;;
35276;SDS011;21401;50.878;8.050;2022-12-10T04:19:30;30.30;;;16.08;;
35276;SDS011;21401;50.878;8.050;2022-12-10T05:02:06;30.15;;;13.70;;
35276;SDS011;21401;50.878;8.050;2022-12-10T05:04:34;26.52;;;15.02;;
35276;SDS011;21401;50.878;8.050;2022-12-10T05:07:02;33.33;;;14.63;;
35276;SDS011;21401;50.878;8.050;2022-12-10T05:09:30;24.95;;;13.82;;
35276;SDS011;21401;50.878;8.050;2022-12-10T05:11:56;31.98;;;14.85;;
35276;SDS011;21401;50.878;8.050;2022-12-10T05:14:24;29.77;;;15.75;;
35276;SDS011;21401;50.878;8.050;2022-12-10T05:16:51;25.35;;;13.75;;
35276;SDS011;21401;50.878;8.050;2022-12-10T05:19:20;25.63;;;15.43;;
35276;SDS011;21401;50.878;8.050;2022-12-10T05:21:46;28.10;;;14.85;;
35276;SDS011;21401;50.878;8.050;2022-12-10T05:24:33;31.60;;;15.57;;
35276;SDS011;21401;50.878;8.050;2022-12-10T05:26:59;27.67;;;14.95;;
35276;SDS011;21401;50.878;8.050;2022-12-10T05:29:25;27.58;;;13.77;;
35276;SDS011;21401;50.878;8.050;2022-12-10T05:31:53;29.95;;;15.65;;
35276;SDS011;21401;50.878;8.050;2022-12-10T05:34:18;27.58;;;15.02;;
35276;SDS011;21401;50.878;8.050;2022-12-10T05:36:46;29.40;;;14.77;;
35276;SDS011;21401;50.878;8.050;2022-12-10T05:39:12;29.17;;;15.05;;
35276;SDS011;21401;50.878;8.050;2022-12-10T05:41:38;28.05;;;14.60;;
35276;SDS011;21401;50.878;8.050;2022-12-10T05:44:04;22.85;;;13.48;;
35276;SDS011;21401;50.878;8.050;2022-12-10T05:46:31;29.80;;;14.75;;
35276;SDS011;21401;50.878;8.050;2022-12-10T05:49:00;31.58;;;15.40;;
35276;SDS011;21401;50.878;8.050;2022-12-10T05:51:30;26.67;;;14.23;;
35276;SDS011;21401;50.878;8.050;2022-12-10T05:54:00;31.25;;;15.70;;
35276;SDS011;21401;50.878;8.050;2022-12-10T05:56:28;28.73;;;14.88;;
35276;SDS011;21401;50.878;8.050;2022-12-10T05:58:57;30.05;;;15.27;;
35276;SDS011;21401;50.878;8.050;2022-12-10T06:01:26;32.70;;;17.00;;
35276;SDS011;21401;50.878;8.050;2022-12-10T06:03:53;23.45;;;13.70;;
35276;SDS011;21401;50.878;8.050;2022-12-10T06:06:22;28.65;;;13.75;;
35276;SDS011;21401;50.878;8.050;2022-12-10T06:08:49;30.30;;;13.85;;
35276;SDS011;21401;50.878;8.050;2022-12-10T06:11:15;31.05;;;14.73;;
35276;SDS011;21401;50.878;8.050;2022-12-10T06:13:41;28.65;;;13.52;;
35276;SDS011;21401;50.878;8.050;2022-12-10T06:16:08;26.30;;;15.10;;
35276;SDS011;21401;50.878;8.050;2022-12-10T06:18:35;29.88;;;15.82;;
35276;SDS011;21401;50.878;8.050;2022-12-10T06:21:04;28.52;;;15.13;;
35276;SDS011;21401;50.878;8.050;2022-12-10T06:23:31;28.50;;;15.18;;
35276;SDS011;21401;50.878;8.050;2022-12-10T06:25:56;33.67;;;16.42;;
35276;SDS011;21401;50.878;8.050;2022-12-10T06:28:22;29.67;;;16.73;;
35276;SDS011;21401;50.878;8.050;2022-12-10T06:30:47;36.85;;;17.35;;
35276;SDS011;21401;50.878;8.050;2022-12-10T06:33:15;30.30;;;15.85;;
35276;SDS011;21401;50.878;8.050;2022-12-10T06:35:40;28.02;;;15.48;;
35276;SDS011;21401;50.878;8.050;2022-12-10T06:38:06;30.73;;;15.95;;
35276;SDS011;21401;50.878;8.050;2022-12-10T06:40:34;24.98;;;14.52;;
35276;SDS011;21401;50.878;8.050;2022-12-10T06:43:02;27.92;;;15.50;;
35276;SDS011;21401;50.878;8.050;2022-12-10T06:45:27;30.42;;;15.80;;
35276;SDS011;21401;50.878;8.050;2022-12-10T06:47:53;29.02;;;16.85;;
35276;SDS011;21401;50.878;8.050;2022-12-10T06:50:21;28.90;;;15.35;;
35276;SDS011;21401;50.878;8.050;2022-12-10T06:53:31;25.65;;;13.15;;
35276;SDS011;21401;50.878;8.050;2022-12-10T07:13:34;31.40;;;15.50;;
35276;SDS011;21401;50.878;8.050;2022-12-10T07:16:00;29.52;;;14.52;;
35276;SDS011;21401;50.878;8.050;2022-12-10T07:25:11;26.98;;;14.45;;
35276;SDS011;21401;50.878;8.050;2022-12-10T07:27:38;27.70;;;13.13;;
35276;SDS011;21401;50.878;8.050;2022-12-10T07:30:04;30.30;;;14.73;;
35276;SDS011;21401;50.878;8.050;2022-12-10T07:32:30;30.35;;;14.65;;
35276;SDS011;21401;50.878;8.050;2022-12-10T07:34:56;33.42;;;15.02;;
35276;SDS011;21401;50.878;8.050;2022-12-10T07:37:22;25.80;;;13.07;;
35276;SDS011;21401;50.878;8.050;2022-12-10T07:39:50;25.92;;;13.57;;
35276;SDS011;21401;50.878;8.050;2022-12-10T07:42:16;25.85;;;13.93;;
35276;SDS011;21401;50.878;8.050;2022-12-10T07:44:47;26.48;;;14.52;;
35276;SDS011;21401;50.878;8.050;2022-12-10T07:47:13;25.65;;;13.88;;
35276;SDS011;21401;50.878;8.050;2022-12-10T07:49:38;30.05;;;14.73;;
35276;SDS011;21401;50.878;8.050;2022-12-10T07:52:07;24.98;;;14.38;;
35276;SDS011;21401;50.878;8.050;2022-12-10T07:54:35;29.60;;;14.25;;
35276;SDS011;21401;50.878;8.050;2022-12-10T07:57:03;26.20;;;13.93;;
35276;SDS011;21401;50.878;8.050;2022-12-10T07:59:31;25.42;;;13.30;;
35276;SDS011;21401;50.878;8.050;2022-12-10T08:01:57;30.20;;;13.75;;
35276;SDS011;21401;50.878;8.050;2022-12-10T08:04:22;23.33;;;13.50;;
35276;SDS011;21401;50.878;8.050;2022-12-10T08:06:48;28.80;;;14.50;;
35276;SDS011;21401;50.878;8.050;2022-12-10T08:09:14;31.88;;;16.23;;
35276;SDS011;21401;50.878;8.050;2022-12-10T08:11:42;35.50;;;15.18;;
35276;SDS011;21401;50.878;8.050;2022-12-10T08:14:07;35.08;;;15.98;;
35276;SDS011;21401;50.878;8.050;2022-12-10T08:16:35;36.72;;;16.13;;
35276;SDS011;21401;50.878;8.050;2022-12-10T08:19:03;39.33;;;17.30;;
35276;SDS011;21401;50.878;8.050;2022-12-10T08:34:23;46.65;;;19.17;;
35276;SDS011;21401;50.878;8.050;2022-12-10T08:36:49;44.20;;;19.00;;
35276;SDS011;21401;50.878;8.050;2022-12-10T08:39:14;48.20;;;19.92;;
35276;SDS011;21401;50.878;8.050;2022-12-10T08:41:41;43.22;;;19.05;;
35276;SDS011;21401;50.878;8.050;2022-12-10T08:44:08;44.28;;;19.63;;
35276;SDS011;21401;50.878;8.050;2022-12-10T08:46:37;42.00;;;17.42;;
35276;SDS011;21401;50.878;8.050;2022-12-10T08:49:05;42.72;;;17.92;;
35276;SDS011;21401;50.878;8.050;2022-12-10T08:51:34;38.55;;;18.02;;
35276;SDS011;21401;50.878;8.050;2022-12-10T08:54:00;45.40;;;19.85;;
35276;SDS011;21401;50.878;8.050;2022-12-10T08:56:26;41.72;;;19.58;;
35276;SDS011;21401;50.878;8.050;2022-12-10T08:58:51;47.17;;;20.50;;
35276;SDS011;21401;50.878;8.050;2022-12-10T09:01:18;47.70;;;19.25;;
35276;SDS011;21401;50.878;8.050;2022-12-10T09:03:46;53.97;;;20.27;;
35276;SDS011;21401;50.878;8.050;2022-12-10T09:06:16;48.83;;;20.42;;
35276;SDS011;21401;50.878;8.050;2022-12-10T09:08:59;48.65;;;19.90;;
35276;SDS011;21401;50.878;8.050;2022-12-10T09:11:27;52.47;;;22.20;;
35276;SDS011;21401;50.878;8.050;2022-12-10T09:13:54;50.53;;;21.02;;
35276;SDS011;21401;50.878;8.050;2022-12-10T09:16:21;51.35;;;21.75;;
35276;SDS011;21401;50.878;8.050;2022-12-10T09:18:54;47.95;;;20.80;;
35276;SDS011;21401;50.878;8.050;2022-12-10T09:21:19;52.88;;;21.75;;
35276;SDS011;21401;50.878;8.050;2022-12-10T09:23:45;56.63;;;21.35;;
35276;SDS011;21401;50.878;8.050;2022-12-10T09:26:15;50.97;;;21.23;;
35276;SDS011;21401;50.878;8.050;2022-12-10T09:28:41;58.25;;;22.35;;
35276;SDS011;21401;50.878;8.050;2022-12-10T09:31:12;48.72;;;20.40;;
35276;SDS011;21401;50.878;8.050;2022-12-10T09:33:39;54.40;;;22.02;;
35276;SDS011;21401;50.878;8.050;2022-12-10T09:36:08;54.85;;;22.33;;
35276;SDS011;21401;50.878;8.050;2022-12-10T09:38:35;48.72;;;20.60;;
35276;SDS011;21401;50.878;8.050;2022-12-10T09:41:04;55.55;;;22.45;;
35276;SDS011;21401;50.878;8.050;2022-12-10T09:44:08;54.22;;;22.98;;
35276;SDS011;21401;50.878;8.050;2022-12-10T09:46:55;56.80;;;23.23;;
35276;SDS011;21401;50.878;8.050;2022-12-10T09:51:48;65.45;;;25.02;;
35276;SDS011;21401;50.878;8.050;2022-12-10T09:56:47;57.28;;;24.45;;
35276;SDS011;21401;50.878;8.050;2022-12-10T09:59:58;50.65;;;22.23;;
35276;SDS011;21401;50.878;8.050;2022-12-10T10:04:36;53.70;;;20.67;;
35276;SDS011;21401;50.878;8.050;2022-12-10T10:07:02;56.63;;;23.85;;
35276;SDS011;21401;50.878;8.050;2022-12-10T10:09:30;48.00;;;20.85;;
35276;SDS011;21401;50.878;8.050;2022-12-10T10:12:07;56.95;;;23.00;;
35276;SDS011;21401;50.878;8.050;2022-12-10T10:14:41;55.60;;;22.10;;
35276;SDS011;21401;50.878;8.050;2022-12-10T10:20:00;50.28;;;22.85;;
35276;SDS011;21401;50.878;8.050;2022-12-10T10:22:26;54.20;;;22.42;;
35276;SDS011;21401;50.878;8.050;2022-12-10T10:24:52;69.70;;;26.85;;
35276;SDS011;21401;50.878;8.050;2022-12-10T10:27:22;58.83;;;23.83;;
35276;SDS011;21401;50.878;8.050;2022-12-10T10:29:53;72.57;;;28.15;;
35276;SDS011;21401;50.878;8.050;2022-12-10T10:34:52;59.67;;;23.88;;
35276;SDS011;21401;50.878;8.050;2022-12-10T10:37:25;72.00;;;25.40;;
35276;SDS011;21401;50.878;8.050;2022-12-10T10:39:58;64.30;;;25.75;;
35276;SDS011;21401;50.878;8.050;2022-12-10T10:42:33;64.97;;;26.17;;
35276;SDS011;21401;50.878;8.050;2022-12-10T10:45:05;76.05;;;31.05;;
35276;SDS011;21401;50.878;8.050;2022-12-10T10:53:21;51.50;;;22.40;;
35276;SDS011;21401;50.878;8.050;2022-12-10T10:55:53;52.67;;;22.70;;
35276;SDS011;21401;50.878;8.050;2022-12-10T10:58:22;55.17;;;23.75;;
35276;SDS011;21401;50.878;8.050;2022-12-10T11:05:47;75.82;;;25.42;;
35276;SDS011;21401;50.878;8.050;2022-12-10T11:08:15;76.70;;;27.77;;
35276;SDS011;21401;50.878;8.050;2022-12-10T11:10:49;86.47;;;30.70;;
35276;SDS011;21401;50.878;8.050;2022-12-10T11:13:19;96.43;;;34.10;;
35276;SDS011;21401;50.878;8.050;2022-12-10T11:15:54;63.67;;;27.15;;
35276;SDS011;21401;50.878;8.050;2022-12-10T11:18:37;65.53;;;26.95;;
35276;SDS011;21401;50.878;8.050;2022-12-10T11:23:38;67.90;;;26.67;;
35276;SDS011;21401;50.878;8.050;2022-12-10T11:37:03;52.05;;;21.20;;
35276;SDS011;21401;50.878;8.050;2022-12-10T11:39:52;77.45;;;28.58;;
35276;SDS011;21401;50.878;8.050;2022-12-10T11:45:31;56.78;;;24.45;;
35276;SDS011;21401;50.878;8.050;2022-12-10T11:50:53;60.83;;;29.10;;
35276;SDS011;21401;50.878;8.050;2022-12-10T11:56:27;56.92;;;25.23;;
35276;SDS011;21401;50.878;8.050;2022-12-10T12:01:38;52.90;;;25.58;;
35276;SDS011;21401;50.878;8.050;2022-12-10T12:15:28;57.90;;;24.85;;
35276;SDS011;21401;50.878;8.050;2022-12-10T12:20:52;56.85;;;24.02;;
35276;SDS011;21401;50.878;8.050;2022-12-10T12:23:29;54.33;;;24.27;;
35276;SDS011;21401;50.878;8.050;2022-12-10T12:26:13;59.83;;;25.10;;
35276;SDS011;21401;50.878;8.050;2022-12-10T12:28:51;57.35;;;25.77;;
35276;SDS011;21401;50.878;8.050;2022-12-10T12:31:21;57.00;;;25.70;;
35276;SDS011;21401;50.878;8.050;2022-12-10T12:33:54;59.20;;;28.45;;
35276;SDS011;21401;50.878;8.050;2022-12-10T12:36:26;61.00;;;27.80;;
35276;SDS011;21401;50.878;8.050;2022-12-10T12:44:24;63.47;;;27.35;;
35276;SDS011;21401;50.878;8.050;2022-12-10T12:47:02;55.38;;;26.88;;
35276;SDS011;21401;50.878;8.050;2022-12-10T12:49:41;62.05;;;28.15;;
35276;SDS011;21401;50.878;8.050;2022-12-10T12:54:54;70.93;;;31.05;;
35276;SDS011;21401;50.878;8.050;2022-12-10T13:00:14;60.92;;;26.70;;
35276;SDS011;21401;50.878;8.050;2022-12-10T13:02:53;60.03;;;28.33;;
35276;SDS011;21401;50.878;8.050;2022-12-10T13:05:30;61.65;;;28.33;;
35276;SDS011;21401;50.878;8.050;2022-12-10T13:10:53;60.55;;;28.67;;
35276;SDS011;21401;50.878;8.050;2022-12-10T13:15:53;64.78;;;28.33;;
35276;SDS011;21401;50.878;8.050;2022-12-10T13:18:39;63.53;;;29.92;;
35276;SDS011;21401;50.878;8.050;2022-12-10T13:23:52;70.70;;;29.38;;
35276;SDS011;21401;50.878;8.050;2022-12-10T13:26:33;83.43;;;38.88;;
35276;SDS011;21401;50.878;8.050;2022-12-10T13:32:03;52.10;;;24.00;;
35276;SDS011;21401;50.878;8.050;2022-12-10T13:34:38;102.28;;;42.30;;
35276;SDS011;21401;50.878;8.050;2022-12-10T13:37:06;73.63;;;35.22;;
35276;SDS011;21401;50.878;8.050;2022-12-10T13:53:10;51.60;;;26.65;;
35276;SDS011;21401;50.878;8.050;2022-12-10T13:55:55;51.22;;;25.60;;
35276;SDS011;21401;50.878;8.050;2022-12-10T14:04:31;48.90;;;24.17;;
35276;SDS011;21401;50.878;8.050;2022-12-10T14:07:17;46.35;;;22.98;;
35276;SDS011;21401;50.878;8.050;2022-12-10T14:09:48;45.20;;;22.40;;
35276;SDS011;21401;50.878;8.050;2022-12-10T14:14:59;45.28;;;22.95;;
35276;SDS011;21401;50.878;8.050;2022-12-10T14:17:37;46.92;;;24.40;;
35276;SDS011;21401;50.878;8.050;2022-12-10T14:20:12;51.65;;;25.38;;
35276;SDS011;21401;50.878;8.050;2022-12-10T14:22:49;49.60;;;24.92;;
35276;SDS011;21401;50.878;8.050;2022-12-10T14:25:20;42.78;;;22.50;;
35276;SDS011;21401;50.878;8.050;2022-12-10T14:27:50;45.08;;;22.35;;
35276;SDS011;21401;50.878;8.050;2022-12-10T14:30:22;47.63;;;24.63;;
35276;SDS011;21401;50.878;8.050;2022-12-10T14:32:49;38.70;;;20.08;;
35276;SDS011;21401;50.878;8.050;2022-12-10T14:35:17;42.80;;;22.27;;
35276;SDS011;21401;50.878;8.050;2022-12-10T14:37:45;45.03;;;21.25;;
35276;SDS011;21401;50.878;8.050;2022-12-10T14:40:18;44.22;;;23.10;;
35276;SDS011;21401;50.878;8.050;2022-12-10T14:42:50;44.55;;;22.75;;
35276;SDS011;21401;50.878;8.050;2022-12-10T14:45:24;45.33;;;21.90;;
35276;SDS011;21401;50.878;8.050;2022-12-10T14:47:59;42.38;;;21.63;;
35276;SDS011;21401;50.878;8.050;2022-12-10T14:50:32;39.22;;;18.92;;
35276;SDS011;21401;50.878;8.050;2022-12-10T14:53:05;38.22;;;21.23;;
35276;SDS011;21401;50.878;8.050;2022-12-10T14:55:37;47.58;;;22.85;;
35276;SDS011;21401;50.878;8.050;2022-12-10T14:58:03;48.05;;;23.40;;
35276;SDS011;21401;50.878;8.050;2022-12-10T15:00:34;47.55;;;23.85;;
35276;SDS011;21401;50.878;8.050;2022-12-10T15:03:01;50.35;;;25.02;;
35276;SDS011;21401;50.878;8.050;2022-12-10T15:10:28;56.90;;;26.30;;
35276;SDS011;21401;50.878;8.050;2022-12-10T15:13:08;58.55;;;27.15;;
35276;SDS011;21401;50.878;8.050;2022-12-10T15:15:53;47.20;;;22.52;;
35276;SDS011;21401;50.878;8.050;2022-12-10T15:18:30;41.90;;;21.63;;
35276;SDS011;21401;50.878;8.050;2022-12-10T15:23:34;42.70;;;21.88;;
35276;SDS011;21401;50.878;8.050;2022-12-10T15:26:02;41.28;;;22.80;;
35276;SDS011;21401;50.878;8.050;2022-12-10T15:28:36;41.60;;;20.02;;
35276;SDS011;21401;50.878;8.050;2022-12-10T15:33:50;38.42;;;19.20;;
35276;SDS011;21401;50.878;8.050;2022-12-10T15:36:24;45.58;;;23.23;;
35276;SDS011;21401;50.878;8.050;2022-12-10T15:38:57;44.50;;;23.52;;
35276;SDS011;21401;50.878;8.050;2022-12-10T15:41:44;51.97;;;25.35;;
35276;SDS011;21401;50.878;8.050;2022-12-10T15:44:27;59.40;;;28.60;;
35276;SDS011;21401;50.878;8.050;2022-12-10T15:49:50;53.33;;;26.65;;
35276;SDS011;21401;50.878;8.050;2022-12-10T15:52:27;60.00;;;29.13;;
35276;SDS011;21401;50.878;8.050;2022-12-10T15:54:59;58.17;;;25.27;;
35276;SDS011;21401;50.878;8.050;2022-12-10T15:57:32;37.70;;;20.95;;
35276;SDS011;21401;50.878;8.050;2022-12-10T16:00:01;66.13;;;28.63;;
35276;SDS011;21401;50.878;8.050;2022-12-10T16:05:25;47.75;;;22.38;;
35276;SDS011;21401;50.878;8.050;2022-12-10T16:07:56;44.20;;;21.75;;
35276;SDS011;21401;50.878;8.050;2022-12-10T16:10:26;58.25;;;24.38;;
35276;SDS011;21401;50.878;8.050;2022-12-10T16:15:29;57.70;;;28.67;;
35276;SDS011;21401;50.878;8.050;2022-12-10T16:18:03;53.35;;;24.75;;
35276;SDS011;21401;50.878;8.050;2022-12-10T16:20:29;57.08;;;26.92;;
35276;SDS011;21401;50.878;8.050;2022-12-10T16:22:56;48.28;;;23.08;;
35276;SDS011;21401;50.878;8.050;2022-12-10T16:25:24;41.03;;;21.83;;
35276;SDS011;21401;50.878;8.050;2022-12-10T16:27:53;39.03;;;19.05;;
35276;SDS011;21401;50.878;8.050;2022-12-10T16:30:41;35.92;;;19.60;;
35276;SDS011;21401;50.878;8.050;2022-12-10T16:33:11;38.15;;;19.55;;
35276;SDS011;21401;50.878;8.050;2022-12-10T16:35:37;37.30;;;19.50;;
35276;SDS011;21401;50.878;8.050;2022-12-10T16:38:03;37.75;;;19.15;;
35276;SDS011;21401;50.878;8.050;2022-12-10T16:40:31;35.15;;;18.33;;
35276;SDS011;21401;50.878;8.050;2022-12-10T16:42:59;37.20;;;17.65;;
35276;SDS011;21401;50.878;8.050;2022-12-10T16:47:50;33.95;;;16.67;;
35276;SDS011;21401;50.878;8.050;2022-12-10T16:50:17;40.60;;;18.17;;
35276;SDS011;21401;50.878;8.050;2022-12-10T16:52:43;40.08;;;20.52;;
35276;SDS011;21401;50.878;8.050;2022-12-10T16:55:13;41.33;;;21.60;;
35276;SDS011;21401;50.878;8.050;2022-12-10T16:57:44;41.45;;;21.08;;
35276;SDS011;21401;50.878;8.050;2022-12-10T17:00:13;42.33;;;20.75;;
35276;SDS011;21401;50.878;8.050;2022-12-10T17:02:44;41.10;;;19.83;;
35276;SDS011;21401;50.878;8.050;2022-12-10T17:05:17;37.85;;;19.83;;
35276;SDS011;21401;50.878;8.050;2022-12-10T17:07:58;43.95;;;21.80;;
35276;SDS011;21401;50.878;8.050;2022-12-10T17:10:23;39.40;;;20.42;;
35276;SDS011;21401;50.878;8.050;2022-12-10T17:13:09;44.15;;;22.50;;
35276;SDS011;21401;50.878;8.050;2022-12-10T17:15:37;48.13;;;21.65;;
35276;SDS011;21401;50.878;8.050;2022-12-10T17:18:03;47.65;;;24.90;;
35276;SDS011;21401;50.878;8.050;2022-12-10T17:20:31;51.33;;;23.75;;
35276;SDS011;21401;50.878;8.050;2022-12-10T17:22:59;52.10;;;27.75;;
35276;SDS011;21401;50.878;8.050;2022-12-10T17:25:25;49.35;;;24.73;;
35276;SDS011;21401;50.878;8.050;2022-12-10T17:27:50;52.28;;;27.40;;
35276;SDS011;21401;50.878;8.050;2022-12-10T17:30:16;50.45;;;24.08;;
35276;SDS011;21401;50.878;8.050;2022-12-10T17:32:42;49.65;;;24.90;;
35276;SDS011;21401;50.878;8.050;2022-12-10T17:35:08;51.75;;;27.30;;
35276;SDS011;21401;50.878;8.050;2022-12-10T17:37:36;57.30;;;27.35;;
35276;SDS011;21401;50.878;8.050;2022-12-10T17:40:06;56.03;;;27.67;;
35276;SDS011;21401;50.878;8.050;2022-12-10T17:42:40;47.58;;;23.98;;
35276;SDS011;21401;50.878;8.050;2022-12-10T17:45:11;53.80;;;26.08;;
35276;SDS011;21401;50.878;8.050;2022-12-10T17:47:41;51.38;;;25.23;;
35276;SDS011;21401;50.878;8.050;2022-12-10T17:50:27;49.80;;;25.67;;
35276;SDS011;21401;50.878;8.050;2022-12-10T17:52:54;52.00;;;24.98;;
35276;SDS011;21401;50.878;8.050;2022-12-10T17:55:20;50.83;;;25.50;;
35276;SDS011;21401;50.878;8.050;2022-12-10T17:57:45;47.92;;;24.85;;
35276;SDS011;21401;50.878;8.050;2022-12-10T18:00:12;48.78;;;25.00;;
35276;SDS011;21401;50.878;8.050;2022-12-10T18:02:40;45.17;;;22.80;;
35276;SDS011;21401;50.878;8.050;2022-12-10T18:05:07;42.17;;;20.75;;
35276;SDS011;21401;50.878;8.050;2022-12-10T18:07:33;47.65;;;21.35;;
35276;SDS011;21401;50.878;8.050;2022-12-10T18:09:58;35.70;;;19.80;;
35276;SDS011;21401;50.878;8.050;2022-12-10T18:12:24;35.38;;;17.73;;
35276;SDS011;21401;50.878;8.050;2022-12-10T18:14:52;36.03;;;18.75;;
35276;SDS011;21401;50.878;8.050;2022-12-10T18:17:17;37.72;;;18.33;;
35276;SDS011;21401;50.878;8.050;2022-12-10T18:19:43;34.67;;;17.05;;
35276;SDS011;21401;50.878;8.050;2022-12-10T18:22:11;34.92;;;17.80;;
35276;SDS011;21401;50.878;8.050;2022-12-10T18:24:37;44.13;;;19.45;;